• Join FlightAware (Why Join?)
  • Login
  • US Flag 
12:43PM EDT


 

Airport Tracker/Info


-or-


 

Live Flight TrackerFlight Track Log ✈ GJS3710 ✈ 14-Aug-2013 ✈ KORD - KPHL

Flight Track Log - Related Links

Times and Time Zones

All times are in EDT time to prevent confusion due to time zone crossing. See the GJS3710 flight status page for this flight to view local times or setup timezone preferences in your user account.

Time Position Orientation Groundspeed Altitude Reporting Facility
EDT Latitude Longitude Course Direction KTS MPH feet Rate Location/Type
09:56AM 41.9167 -87.8833 154° Southeast 181 208 2,600  Level Chicago TRACON
09:57AM 41.8667 -87.8500 154° Southeast 229 264 4,700 2,160 Climbing Chicago TRACON
09:58AM 41.8233 -87.7975 138° Southeast 241 277 6,600 2,280 Climbing Chicago Center
09:59AM 41.8092 -87.6997 101° East 291 335 9,000 2,460 Climbing Chicago Center
10:00AM 41.8294 -87.5958 75° East 289 333 11,800 2,520 Climbing Chicago Center
10:01AM 41.8528 -87.4875 74° East 301 346 14,300 1,920 Climbing Chicago Center
10:02AM 41.8664 -87.3675 81° East 330 380 15,800 1,620 Climbing Chicago Center
10:03AM 41.8603 -87.2011 93° East 371 427 17,700 1,440 Climbing Chicago Center
10:04AM 41.8558 -87.0525 92° East 396 456 18,800 1,140 Climbing Chicago Center
10:05AM 41.8506 -86.8956 93° East 419 482 20,100 1,440 Climbing Chicago Center
10:06AM 41.8444 -86.7367 93° East 428 493 21,800 1,620 Climbing Chicago Center
10:07AM 41.8389 -86.5539 92° East 437 503 23,500 1,440 Climbing Chicago Center
10:08AM 41.8319 -86.3900 93° East 442 509 24,800 1,200 Climbing Chicago Center
10:09AM 41.8261 -86.2211 93° East 450 518 26,000 1,020 Climbing Chicago Center
10:10AM 41.8192 -86.0481 93° East 463 533 27,000 960 Climbing Chicago Center
10:11AM 41.8117 -85.8725 93° East 471 542 28,000 960 Climbing Chicago Center
10:12AM 41.8047 -85.6942 93° East 478 550 29,000 960 Climbing Chicago Center
10:13AM 41.7969 -85.5114 93° East 483 556 30,100 1,020 Climbing Chicago Center
10:15AM 41.7894 -85.3267 93° East 486 559 31,200 1,080 Climbing Chicago Center
10:16AM 41.7786 -85.1086 94° East 485 558 32,400 960 Climbing Chicago Center
10:17AM 41.7694 -84.9311 94° East 475 547 33,300 840 Climbing Chicago Center
10:18AM 41.7603 -84.7494 94° East 486 559 34,200 840 Climbing Chicago Center
10:19AM 41.7506 -84.5686 94° East 486 559 35,100 720 Climbing Chicago Center
10:20AM 41.7408 -84.3892 94° East 484 557 35,800 660 Climbing Chicago Center
10:21AM 41.7311 -84.2094 94° East 486 559 36,500 660 Climbing Chicago Center
10:22AM 41.7183 -83.9922 94° East 488 562 37,200 600 Climbing Chicago Center
10:23AM 41.7075 -83.8103 94° East 490 564 37,800 600 Climbing Chicago Center
10:24AM 41.6853 -83.5806 97° East 483 556 38,600 480 Climbing Cleveland Center
10:25AM 41.6436 -83.4092 108° East 483 556 39,000 180 Climbing Cleveland Center
10:26AM 41.6019 -83.2378 108° East 483 556 39,000  Level Cleveland Center
10:27AM 41.5658 -83.0781 107° East 491 565 39,000  Level Cleveland Center
10:28AM 41.5236 -82.9072 108° East 491 565 39,000  Level Cleveland Center
10:29AM 41.4792 -82.7283 108° East 491 565 39,000  Level Cleveland Center
10:30AM 41.4306 -82.5383 109° East 491 565 39,000  Level Cleveland Center
10:31AM 41.3875 -82.3572 108° East 491 565 39,000  Level Cleveland Center
10:32AM 41.3422 -82.1844 109° East 497 572 39,000  Level Cleveland Center
10:33AM 41.3047 -82.0233 107° East 497 572 39,000  Level Cleveland Center
10:34AM 41.2608 -81.8456 108° East 502 578 39,000  Level Cleveland Center
10:35AM 41.2147 -81.6706 109° East 502 578 39,000  Level Cleveland Center
10:36AM 41.1706 -81.4961 109° East 502 578 39,000  Level Cleveland Center
10:37AM 41.1175 -81.3025 110° East 502 578 39,000  Level Cleveland Center
10:38AM 41.0686 -81.1256 110° East 509 586 39,000  Level Cleveland Center
10:39AM 41.0317 -80.9683 107° East 503 579 39,000  Level Cleveland Center
10:40AM 40.9842 -80.7950 110° East 503 579 39,000  Level Cleveland Center
10:41AM 40.9364 -80.6189 110° East 508 585 39,000  Level Cleveland Center
10:42AM 40.8883 -80.4403 110° East 508 585 39,000  Level Cleveland Center
10:43AM 40.8358 -80.2567 111° Southeast 501 577 39,000  Level Cleveland Center
10:44AM 40.7792 -80.0869 114° Southeast 501 577 39,000  Level Cleveland Center
10:45AM 40.7261 -79.9364 115° Southeast 501 577 39,000  Level Cleveland Center
10:46AM 40.6667 -79.7728 116° Southeast 501 577 39,000  Level Cleveland Center
10:47AM 40.6072 -79.6067 115° Southeast 501 577 39,000 -360 Level Cleveland Center
10:48AM 40.5658 -79.4325 107° East 501 577 38,300 -900 Descending Cleveland Center
10:49AM 40.5450 -79.2469 98° East 492 566 37,200 -1,500 Descending Cleveland Center
10:50AM 40.5261 -79.0589 97° East 504 580 35,400 -1,860 Descending Cleveland Center
10:51AM 40.5047 -78.8736 99° East 515 593 33,500 -1,920 Descending Cleveland Center
10:52AM 40.4850 -78.6803 98° East 521 600 31,600 -1,980 Descending Cleveland Center
10:54AM 40.4483 -78.3403 98° East 520 598 28,000 -1,980 Descending New York Center
10:55AM 40.4269 -78.1522 98° East 525 604 26,100 -1,500 Descending New York Center
10:56AM 40.4003 -77.9750 101° East 513 590 25,000 -600 Descending New York Center
10:57AM 40.3733 -77.7978 101° East 499 574 25,000 -360 Level New York Center
10:58AM 40.3439 -77.6231 102° East 494 568 24,400 -1,080 Descending New York Center
10:59AM 40.3164 -77.4489 102° East 494 568 22,900 -1,680 Descending New York Center
11:00AM 40.2825 -77.2714 104° East 472 543 21,100 -1,680 Descending New York Center
11:01AM 40.2583 -77.1058 101° East 466 536 19,600 -1,440 Descending New York Center
11:02AM 40.2314 -76.9456 102° East 454 522 18,200 -1,440 Descending New York Center
11:03AM 40.2058 -76.7911 102° East 454 522 16,700 -1,500 Descending New York Center
11:04AM 40.1817 -76.6531 103° East 433 498 15,200 -1,500 Descending New York Center
11:05AM 40.1575 -76.5044 102° East 421 484 13,800 -1,620 Descending New York Center
11:06AM 40.1294 -76.3500 103° East 416 479 12,100 -1,440 Descending New York Center
11:07AM 40.1147 -76.2211 98° East 382 440 11,000 -1,320 Descending New York Center
11:08AM 40.1075 -76.1067 95° East 334 384 9,600 -1,260 Descending New York Center
11:09AM 40.0994 -76.0056 96° East 315 362 8,600 -840 Descending New York Center
11:10AM 40.0939 -75.8939 94° East 310 357 8,000 -420 Descending New York Center
11:11AM 40.0822 -75.7764 97° East 305 351 7,800 -660 Descending New York Center
11:12AM 40.0758 -75.6808 95° East 298 343 6,800 -900 Descending New York Center
11:13AM 40.0703 -75.5667 94° East 288 331 6,000 -420 Descending New York Center
11:14AM 40.0678 -75.4742 92° East 288 331 6,000  Level New York Center
11:15AM 40.0617 -75.3625 94° East 282 325 6,000  Level New York Center
11:16AM 40.0667 -75.2833 85° East 217 250 6,000  Level Philadelphia TRACON
11:17AM 40.0333 -75.2000 118° Southeast 234 269 6,000 -60 Level Philadelphia TRACON
11:18AM 40.0000 -75.1167 118° Southeast 227 261 5,900 -660 Descending Philadelphia TRACON
11:19AM 39.9833 -75.0667 113° Southeast 225 259 4,900 -1,080 Descending Philadelphia TRACON
11:20AM 39.9500 -75.0000 123° Southeast 214 246 4,000 -720 Descending Philadelphia TRACON
11:21AM 39.9167 -74.9667 143° Southeast 204 235 3,500 -540 Descending Philadelphia TRACON
11:22AM 39.9167 -75.0167 270° West 164 189 3,000 -540 Descending Philadelphia TRACON
11:23AM 39.9000 -75.0833 252° West 168 193 2,500 -600 Descending Philadelphia TRACON
11:24AM 39.8833 -75.1333 247° West 133 153 1,800 -780 Descending Philadelphia TRACON
11:25AM 39.8833 -75.1833 247° West 129 148 900 -840 Descending Philadelphia TRACON
11:26AM 39.8667 -75.2333 247° West  Level FlightAware Approximate
11:28AM 39.8667 -75.2333 247° West  Level FlightAware Approximate